Time;durP1;ratioP1;P1;durP2;ratioP2;P2;SDS_P1;SDS_P2;PMS_P1;PMS_P2;Temp;Humidity;BMP_temperature;BMP_pressure;BME280_temperature;BME280_humidity;BME280_pressure;Samples;Min_cycle;Max_cycle;Signal;HPM_P1;HPM_P2
2022/05/06 00:01:51;;;;;;;12.18;5.35;;;15.90;99.90;;;;;;5028065;28;20033;-70
2022/05/06 00:04:18;;;;;;;9.27;5.03;;;15.80;99.90;;;;;;5032447;28;20018;-67
2022/05/06 00:06:44;;;;;;;8.63;5.25;;;15.80;99.90;;;;;;5032145;28;20037;-69
2022/05/06 00:09:10;;;;;;;8.98;5.32;;;15.80;99.90;;;;;;5027377;28;20028;-70
2022/05/06 00:11:36;;;;;;;10.13;5.30;;;15.60;99.90;;;;;;5030464;28;20042;-69
2022/05/06 00:14:02;;;;;;;10.15;5.80;;;15.60;99.90;;;;;;5018611;28;20053;-67
2022/05/06 00:16:28;;;;;;;11.07;5.97;;;15.40;99.90;;;;;;4997751;28;20030;-71
2022/05/06 00:18:55;;;;;;;9.35;5.15;;;15.40;99.90;;;;;;4991122;28;20022;-69
2022/05/06 00:21:22;;;;;;;10.20;5.20;;;15.30;99.90;;;;;;4991944;28;20035;-68
2022/05/06 00:23:48;;;;;;;7.28;4.97;;;15.30;99.90;;;;;;4990291;28;20026;-72
2022/05/06 00:26:16;;;;;;;8.88;5.03;;;15.30;99.90;;;;;;5001470;28;20061;-71
2022/05/06 00:28:41;;;;;;;9.48;5.95;;;15.30;99.90;;;;;;4993870;28;20034;-69
2022/05/06 00:31:07;;;;;;;12.10;5.63;;;15.20;99.90;;;;;;4991693;28;20031;-69
2022/05/06 00:33:33;;;;;;;10.73;6.15;;;15.20;99.90;;;;;;4991913;28;20014;-72
2022/05/06 00:36:02;;;;;;;7.75;4.53;;;15.20;99.90;;;;;;4990213;28;20122;-72
2022/05/06 00:38:28;;;;;;;10.57;5.65;;;15.20;99.90;;;;;;5005856;28;20040;-72
2022/05/06 00:40:55;;;;;;;8.98;5.68;;;15.30;99.90;;;;;;4995728;28;20368;-72
2022/05/06 00:43:22;;;;;;;8.50;5.15;;;15.20;99.90;;;;;;4992219;28;20019;-71
2022/05/06 00:45:52;;;;;;;8.82;4.97;;;15.20;99.90;;;;;;4997434;28;20042;-68
2022/05/06 00:48:20;;;;;;;9.40;5.07;;;15.20;99.90;;;;;;5002362;28;20042;-71
2022/05/06 00:50:47;;;;;;;10.52;5.20;;;15.20;99.90;;;;;;4989878;28;20121;-71
2022/05/06 00:53:14;;;;;;;8.43;5.38;;;15.30;99.90;;;;;;4990379;28;20033;-66
2022/05/06 00:55:41;;;;;;;9.52;4.82;;;15.30;99.90;;;;;;4990877;28;20023;-68
2022/05/06 00:58:09;;;;;;;9.63;5.22;;;15.30;99.90;;;;;;4988232;28;20030;-68
2022/05/06 01:00:35;;;;;;;11.55;5.80;;;15.30;99.90;;;;;;4998661;28;20091;-64
2022/05/06 01:03:01;;;;;;;11.10;5.03;;;15.10;99.90;;;;;;4990855;28;20022;-68
2022/05/06 01:05:28;;;;;;;12.73;5.03;;;15.00;99.90;;;;;;5005990;28;20112;-69
2022/05/06 01:07:54;;;;;;;10.32;5.88;;;14.90;99.90;;;;;;4990503;28;20026;-63
2022/05/06 01:10:21;;;;;;;9.68;5.25;;;14.80;99.90;;;;;;5006133;28;20746;-66
2022/05/06 01:12:48;;;;;;;7.72;5.47;;;14.80;99.90;;;;;;4991342;28;20096;-69
2022/05/06 01:15:28;;;;;;;8.95;5.78;;;14.80;99.90;;;;;;5010394;28;20413;-68
2022/05/06 01:18:00;;;;;;;10.68;5.68;;;14.70;99.90;;;;;;5010209;28;20116;-65
2022/05/06 01:20:27;;;;;;;7.88;5.72;;;14.80;99.90;;;;;;5010135;28;20042;-69
2022/05/06 01:22:58;;;;;;;9.90;5.13;;;14.80;99.90;;;;;;5010382;28;20057;-69
2022/05/06 01:25:25;;;;;;;8.43;4.95;;;14.80;99.90;;;;;;5016693;28;20345;-72
2022/05/06 01:28:05;;;;;;;8.32;5.25;;;14.80;99.90;;;;;;5013570;28;20037;-71
2022/05/06 01:30:36;;;;;;;10.20;4.43;;;14.90;99.90;;;;;;5013392;28;20034;-73
2022/05/06 01:33:07;;;;;;;10.80;4.57;;;14.90;99.90;;;;;;5015262;28;20026;-71
2022/05/06 01:35:57;;;;;;;11.98;5.38;;;15.00;99.90;;;;;;5014841;28;20105;-71
2022/05/06 01:38:31;;;;;;;12.60;5.30;;;15.00;99.90;;;;;;4997744;28;20483;-70
2022/05/06 01:41:05;;;;;;;10.13;5.82;;;15.00;99.90;;;;;;5010442;28;20068;-71
2022/05/06 01:44:01;;;;;;;9.63;4.70;;;15.10;99.90;;;;;;5012071;28;20045;-71
2022/05/06 01:46:29;;;;;;;8.93;4.85;;;15.10;99.90;;;;;;5000636;28;20046;-72
2022/05/06 01:49:03;;;;;;;11.48;6.38;;;15.10;99.90;;;;;;4987659;28;20045;-71
2022/05/06 01:51:30;;;;;;;10.20;5.22;;;15.10;99.90;;;;;;4977543;28;20421;-71
2022/05/06 01:53:58;;;;;;;8.48;4.88;;;15.10;99.90;;;;;;4993402;28;20097;-70
2022/05/06 01:56:25;;;;;;;10.70;6.53;;;15.00;99.90;;;;;;4992422;28;20412;-72
2022/05/06 01:58:54;;;;;;;9.57;4.65;;;15.00;99.90;;;;;;4992970;28;20038;-69
2022/05/06 02:01:20;;;;;;;9.50;4.80;;;15.00;99.90;;;;;;4984703;28;20038;-71
2022/05/06 02:06:34;;;;;;;10.90;5.90;;;14.90;99.90;;;;;;4993460;28;20484;-72
2022/05/06 02:09:09;;;;;;;11.30;5.47;;;14.90;99.90;;;;;;4977282;28;20037;-72
2022/05/06 02:11:46;;;;;;;8.68;5.53;;;14.80;99.90;;;;;;4993077;28;20532;-72
2022/05/06 02:14:12;;;;;;;9.05;5.78;;;14.80;99.90;;;;;;4984262;28;20481;-71
2022/05/06 02:16:49;;;;;;;9.65;6.05;;;14.70;99.90;;;;;;4994847;28;20021;-72
2022/05/06 02:19:26;;;;;;;11.38;5.97;;;14.60;99.90;;;;;;4993629;28;20391;-72
2022/05/06 02:22:13;;;;;;;11.50;5.03;;;14.50;99.90;;;;;;4993341;28;20038;-72
2022/05/06 02:24:48;;;;;;;8.18;5.13;;;14.50;99.90;;;;;;4989104;28;20164;-67
2022/05/06 02:27:40;;;;;;;8.90;5.40;;;14.50;99.90;;;;;;4991932;28;20045;-70
2022/05/06 02:33:15;;;;;;;11.77;5.95;;;14.50;99.90;;;;;;4984113;28;20026;-72
2022/05/06 02:35:55;;;;;;;8.32;5.15;;;14.50;99.90;;;;;;4989342;28;20081;-69
2022/05/06 02:38:33;;;;;;;8.40;5.00;;;14.50;99.90;;;;;;4975755;28;20031;-71
2022/05/06 02:40:59;;;;;;;11.23;5.00;;;14.60;99.90;;;;;;4987311;28;20046;-71
2022/05/06 02:43:29;;;;;;;9.85;5.20;;;14.60;99.90;;;;;;4984970;28;20041;-71
2022/05/06 02:45:55;;;;;;;7.47;4.95;;;14.60;99.90;;;;;;5001529;28;20057;-72
2022/05/06 02:48:21;;;;;;;11.63;5.60;;;14.70;99.90;;;;;;4995254;28;20026;-65
2022/05/06 02:50:48;;;;;;;9.20;5.13;;;14.60;99.90;;;;;;4994313;28;20376;-71
2022/05/06 02:53:15;;;;;;;7.15;4.78;;;14.60;99.90;;;;;;4974820;28;20055;-65
2022/05/06 02:55:41;;;;;;;10.85;5.30;;;14.60;99.90;;;;;;5010490;28;20031;-71
2022/05/06 02:58:10;;;;;;;9.77;4.88;;;14.60;99.90;;;;;;5005280;28;20037;-71
2022/05/06 03:00:37;;;;;;;7.32;5.10;;;14.50;99.90;;;;;;4993169;28;20042;-71
2022/05/06 03:03:06;;;;;;;7.75;5.05;;;14.60;99.90;;;;;;4999899;28;20049;-69
2022/05/06 03:05:34;;;;;;;11.27;4.97;;;14.60;99.90;;;;;;4997165;28;20105;-73
2022/05/06 03:08:02;;;;;;;7.43;4.80;;;14.60;99.90;;;;;;5012357;28;20026;-72
2022/05/06 03:10:31;;;;;;;10.63;4.78;;;14.70;99.90;;;;;;4993290;28;20034;-71
2022/05/06 03:12:58;;;;;;;9.10;5.30;;;14.60;99.90;;;;;;4979665;28;20039;-71
2022/05/06 03:15:26;;;;;;;11.05;5.43;;;14.70;99.90;;;;;;4972902;28;20038;-72
2022/05/06 03:18:12;;;;;;;11.55;4.97;;;14.60;99.90;;;;;;4997754;28;20040;-72
2022/05/06 03:20:39;;;;;;;7.95;4.55;;;14.50;99.90;;;;;;4994958;28;20121;-72
2022/05/06 03:23:06;;;;;;;8.10;5.25;;;14.40;99.90;;;;;;5011861;28;20030;-71
2022/05/06 03:25:34;;;;;;;8.02;5.07;;;14.40;99.90;;;;;;5009567;28;20057;-66
2022/05/06 03:28:00;;;;;;;8.60;5.15;;;14.40;99.90;;;;;;5013319;28;20491;-72
2022/05/06 03:30:27;;;;;;;8.80;5.22;;;14.30;99.90;;;;;;5012940;28;20037;-72
2022/05/06 03:33:01;;;;;;;8.00;4.60;;;14.30;99.90;;;;;;5005067;28;20029;-72
2022/05/06 03:35:33;;;;;;;11.20;6.07;;;14.30;99.90;;;;;;5011452;28;20104;-71
2022/05/06 03:37:59;;;;;;;11.68;5.88;;;14.40;99.90;;;;;;5011498;28;20041;-71
2022/05/06 03:40:25;;;;;;;11.45;5.43;;;14.50;99.90;;;;;;5026116;28;20045;-68
2022/05/06 03:42:52;;;;;;;15.40;5.38;;;14.40;99.90;;;;;;5031078;28;20452;-73
2022/05/06 03:45:19;;;;;;;11.52;5.05;;;14.40;99.90;;;;;;5012216;28;20105;-72
2022/05/06 03:47:46;;;;;;;8.70;5.00;;;14.30;99.90;;;;;;4990768;28;20053;-70
2022/05/06 03:53:03;;;;;;;12.50;4.78;;;14.30;99.90;;;;;;4970929;28;20485;-70
2022/05/06 03:55:29;;;;;;;9.63;5.00;;;14.20;99.90;;;;;;4970946;28;20051;-72
2022/05/06 03:57:55;;;;;;;10.25;5.32;;;14.20;99.90;;;;;;4966428;28;20159;-72
2022/05/06 04:00:23;;;;;;;10.23;5.32;;;14.20;99.90;;;;;;4973475;28;20449;-73
2022/05/06 04:02:57;;;;;;;9.82;4.70;;;14.20;99.90;;;;;;4990184;28;20046;-72
2022/05/06 04:05:26;;;;;;;8.60;4.32;;;14.30;99.90;;;;;;4973765;28;20069;-70
2022/05/06 04:07:54;;;;;;;10.75;5.07;;;14.30;99.90;;;;;;4971564;28;20166;-73
2022/05/06 04:10:21;;;;;;;9.80;5.38;;;14.40;99.90;;;;;;4970421;28;20034;-72
2022/05/06 04:12:49;;;;;;;7.18;4.18;;;14.40;99.90;;;;;;4972995;28;20026;-72
2022/05/06 04:15:15;;;;;;;9.63;4.82;;;14.50;99.90;;;;;;4989856;28;20034;-72
2022/05/06 04:17:43;;;;;;;21.42;5.25;;;14.60;99.90;;;;;;4990027;28;20125;-70
2022/05/06 04:25:42;;;;;;;12.63;7.03;;;14.80;99.90;;;;;;4989664;28;20094;-65
2022/05/06 04:28:09;;;;;;;11.50;5.38;;;14.90;99.90;;;;;;4987479;28;20027;-71
2022/05/06 04:30:37;;;;;;;19.65;5.68;;;14.80;99.90;;;;;;4969887;28;20089;-71
2022/05/06 04:33:11;;;;;;;9.23;5.38;;;14.90;99.90;;;;;;4987773;28;20100;-73
2022/05/06 04:35:39;;;;;;;10.68;5.25;;;14.90;99.90;;;;;;4987548;28;20030;-72
2022/05/06 04:38:09;;;;;;;9.27;5.07;;;14.90;99.90;;;;;;4987825;28;20086;-72
2022/05/06 04:40:37;;;;;;;11.40;6.25;;;14.90;99.90;;;;;;5004265;28;20042;-72
2022/05/06 04:43:04;;;;;;;11.30;6.10;;;14.90;99.90;;;;;;5010332;28;20032;-72
2022/05/06 04:45:39;;;;;;;12.05;5.63;;;15.00;99.90;;;;;;5000033;28;20080;-73
2022/05/06 04:48:08;;;;;;;13.73;6.28;;;15.00;99.90;;;;;;4974800;28;20032;-69
2022/05/06 04:50:36;;;;;;;16.00;6.13;;;14.90;99.90;;;;;;4973697;28;20023;-68
2022/05/06 04:53:05;;;;;;;9.73;5.45;;;15.00;99.90;;;;;;4989895;28;20065;-65
2022/05/06 04:55:30;;;;;;;9.23;5.53;;;15.00;99.90;;;;;;4990460;28;20499;-71
2022/05/06 04:57:56;;;;;;;9.88;6.03;;;15.00;99.90;;;;;;4990729;28;20042;-72
2022/05/06 05:00:22;;;;;;;8.98;5.00;;;15.00;99.90;;;;;;4993842;28;20038;-72
2022/05/06 05:02:49;;;;;;;10.93;5.88;;;15.00;99.90;;;;;;4994125;28;20073;-71
2022/05/06 05:05:15;;;;;;;11.73;5.10;;;14.90;99.90;;;;;;4993789;28;20089;-72
2022/05/06 05:07:42;;;;;;;15.02;6.50;;;14.90;99.90;;;;;;4994497;28;20101;-72
2022/05/06 05:10:13;;;;;;;13.88;7.45;;;14.90;99.90;;;;;;4977440;28;20018;-70
2022/05/06 05:12:39;;;;;;;24.95;7.10;;;14.90;99.90;;;;;;4987155;28;20071;-72
2022/05/06 05:15:06;;;;;;;24.77;7.50;;;15.00;99.90;;;;;;4991048;28;20030;-71
2022/05/06 05:17:36;;;;;;;22.08;8.15;;;15.10;99.90;;;;;;4991078;28;20086;-72
2022/05/06 05:20:03;;;;;;;18.70;7.97;;;15.10;99.90;;;;;;4991168;28;20117;-72
2022/05/06 05:22:36;;;;;;;25.60;7.68;;;15.20;99.90;;;;;;4991140;28;20023;-72
2022/05/06 05:25:06;;;;;;;12.50;5.90;;;15.40;99.90;;;;;;4990387;28;20049;-72
2022/05/06 05:27:34;;;;;;;12.30;5.68;;;15.40;99.90;;;;;;4990707;28;20498;-72
2022/05/06 05:30:01;;;;;;;14.50;6.35;;;15.40;99.90;;;;;;4991364;28;20039;-70
2022/05/06 05:32:32;;;;;;;13.77;6.78;;;15.50;99.90;;;;;;4993382;28;20022;-67
2022/05/06 05:35:00;;;;;;;14.18;8.07;;;15.50;99.90;;;;;;4983487;28;20037;-72
2022/05/06 05:37:28;;;;;;;18.52;8.48;;;15.60;99.90;;;;;;4994526;28;20532;-72
2022/05/06 05:39:59;;;;;;;13.20;7.97;;;15.50;99.90;;;;;;4993976;28;20038;-69
2022/05/06 05:42:28;;;;;;;12.52;6.95;;;15.60;99.90;;;;;;4992927;28;20449;-71
2022/05/06 05:50:29;;;;;;;16.08;8.73;;;15.70;99.90;;;;;;5014736;28;20053;-70
2022/05/06 05:52:58;;;;;;;16.88;8.00;;;15.70;99.90;;;;;;5009306;28;20103;-70
2022/05/06 05:55:24;;;;;;;11.82;6.78;;;15.80;99.90;;;;;;5013341;28;20033;-72
2022/05/06 05:57:50;;;;;;;15.45;8.25;;;15.90;99.90;;;;;;5013213;28;20049;-72
2022/05/06 06:00:18;;;;;;;13.15;7.07;;;16.00;99.90;;;;;;5012806;28;20037;-70
2022/05/06 06:02:50;;;;;;;21.13;8.90;;;15.90;99.90;;;;;;5013034;28;20553;-72
2022/05/06 06:05:16;;;;;;;14.25;6.45;;;16.00;99.90;;;;;;5013248;28;20399;-71
2022/05/06 06:07:44;;;;;;;10.88;6.90;;;15.90;99.90;;;;;;5012530;28;20026;-72
2022/05/06 06:10:11;;;;;;;11.57;6.93;;;16.00;99.90;;;;;;5012567;28;20472;-72
2022/05/06 06:12:39;;;;;;;11.27;6.68;;;16.10;99.90;;;;;;5012475;28;20038;-72
2022/05/06 06:15:07;;;;;;;12.15;7.20;;;16.30;99.90;;;;;;4996432;28;20391;-68
2022/05/06 06:17:33;;;;;;;14.45;6.63;;;16.30;99.90;;;;;;4996017;28;20022;-69
2022/05/06 06:20:02;;;;;;;14.75;6.75;;;16.50;99.90;;;;;;5012437;28;20030;-71
2022/05/06 06:22:30;;;;;;;10.63;6.43;;;16.60;99.90;;;;;;5011898;28;20025;-71
2022/05/06 06:25:00;;;;;;;13.10;6.88;;;16.60;99.90;;;;;;4996215;28;20030;-69
2022/05/06 06:27:28;;;;;;;13.43;7.65;;;16.60;99.90;;;;;;5001456;28;20543;-71
2022/05/06 06:29:56;;;;;;;12.73;8.30;;;16.60;99.90;;;;;;4993539;28;20128;-73
2022/05/06 06:32:22;;;;;;;18.73;9.68;;;16.70;99.90;;;;;;5010182;28;20109;-72
2022/05/06 06:34:51;;;;;;;18.20;10.88;;;16.80;99.90;;;;;;5011818;28;20037;-70
2022/05/06 06:37:19;;;;;;;15.50;8.57;;;16.90;99.90;;;;;;4996043;28;20033;-73
2022/05/06 06:39:48;;;;;;;13.73;6.80;;;17.00;99.90;;;;;;4995670;28;20117;-74
2022/05/06 06:42:16;;;;;;;15.27;7.32;;;17.00;99.90;;;;;;5011981;28;20038;-72
2022/05/06 06:45:09;;;;;;;18.50;7.82;;;17.00;99.90;;;;;;5010022;28;20494;-73
2022/05/06 06:47:54;;;;;;;17.52;9.10;;;17.10;99.90;;;;;;4997679;28;20046;-73
2022/05/06 06:50:39;;;;;;;13.80;8.55;;;17.10;99.90;;;;;;4992326;28;20053;-73
2022/05/06 06:53:20;;;;;;;11.27;7.00;;;17.10;99.90;;;;;;4994133;28;20113;-72
2022/05/06 06:55:46;;;;;;;17.98;8.25;;;17.20;99.90;;;;;;5001173;28;20018;-72
2022/05/06 06:58:12;;;;;;;20.50;8.15;;;17.20;99.90;;;;;;5013589;28;20048;-73
2022/05/06 07:00:38;;;;;;;17.13;8.38;;;17.20;99.90;;;;;;5012841;28;20037;-72
2022/05/06 07:03:04;;;;;;;16.25;9.65;;;17.40;99.90;;;;;;5010884;28;20033;-73
2022/05/06 07:05:30;;;;;;;16.73;8.80;;;17.30;99.90;;;;;;4993434;28;20036;-73
2022/05/06 07:13:28;;;;;;;22.50;11.05;;;17.50;99.90;;;;;;5009558;28;20025;-70
2022/05/06 07:15:54;;;;;;;18.77;10.48;;;17.70;99.90;;;;;;5012305;28;20034;-73
2022/05/06 07:18:20;;;;;;;24.63;11.95;;;17.70;99.90;;;;;;5012009;28;20036;-70
2022/05/06 07:20:45;;;;;;;20.25;11.75;;;17.80;99.90;;;;;;5012047;28;20535;-72
2022/05/06 07:23:11;;;;;;;19.98;10.68;;;18.00;99.90;;;;;;5011408;28;20036;-72
2022/05/06 07:25:37;;;;;;;26.13;10.48;;;18.10;99.90;;;;;;5012597;28;20034;-71
2022/05/06 07:28:04;;;;;;;12.68;7.82;;;18.10;99.90;;;;;;5012725;28;20034;-71
2022/05/06 07:30:30;;;;;;;13.77;8.18;;;18.00;99.90;;;;;;5012897;28;20029;-71
2022/05/06 07:32:56;;;;;;;13.00;7.57;;;18.00;99.90;;;;;;5012934;28;20034;-72
2022/05/06 07:35:22;;;;;;;15.15;7.88;;;17.90;99.90;;;;;;5012031;28;20058;-72
2022/05/06 07:37:47;;;;;;;17.40;8.27;;;17.80;99.90;;;;;;5012205;28;20100;-72
2022/05/06 07:40:14;;;;;;;15.65;8.88;;;17.90;99.90;;;;;;5012782;28;20028;-72
2022/05/06 07:42:41;;;;;;;16.08;8.60;;;17.90;99.90;;;;;;5012036;28;20380;-72
2022/05/06 07:45:07;;;;;;;15.77;7.35;;;18.00;99.90;;;;;;5012283;28;20480;-72
2022/05/06 07:47:34;;;;;;;17.50;7.50;;;18.10;99.90;;;;;;5011975;28;20084;-72
2022/05/06 07:50:01;;;;;;;15.13;7.53;;;18.00;99.90;;;;;;5012476;28;20038;-71
2022/05/06 07:52:27;;;;;;;16.13;8.07;;;18.00;99.90;;;;;;5011846;28;20052;-69
2022/05/06 07:54:52;;;;;;;17.27;9.15;;;18.10;99.90;;;;;;5012263;28;20030;-69
2022/05/06 07:57:18;;;;;;;13.02;7.22;;;17.90;99.90;;;;;;5012256;28;20030;-70
2022/05/06 07:59:44;;;;;;;19.48;9.05;;;18.00;99.90;;;;;;5011945;28;20022;-70
2022/05/06 08:04:54;;;;;;;14.80;7.70;;;18.20;99.90;;;;;;5012586;28;20108;-69
2022/05/06 08:07:20;;;;;;;17.40;8.10;;;18.30;99.90;;;;;;5011930;28;20109;-69
2022/05/06 08:09:46;;;;;;;11.27;7.03;;;18.30;99.90;;;;;;5011710;28;20026;-69
2022/05/06 08:12:13;;;;;;;17.27;9.52;;;18.40;99.90;;;;;;5012179;28;20064;-70
2022/05/06 08:14:39;;;;;;;15.73;9.32;;;18.30;99.90;;;;;;5011620;28;20118;-69
2022/05/06 08:17:05;;;;;;;16.67;9.68;;;18.40;99.90;;;;;;5012332;28;20026;-70
2022/05/06 08:19:31;;;;;;;20.85;10.90;;;18.60;99.90;;;;;;5011754;28;20022;-69
2022/05/06 08:21:57;;;;;;;19.60;9.73;;;18.70;99.90;;;;;;5011787;28;20562;-70
2022/05/06 08:24:23;;;;;;;16.65;10.07;;;18.70;99.90;;;;;;5011765;28;20117;-70
2022/05/06 08:26:50;;;;;;;21.58;10.25;;;18.60;99.90;;;;;;5011733;28;20030;-67
2022/05/06 08:29:16;;;;;;;17.10;9.80;;;18.60;99.90;;;;;;5011704;28;20026;-70
2022/05/06 08:31:42;;;;;;;18.63;9.93;;;18.70;99.90;;;;;;5013544;28;20033;-70
2022/05/06 08:34:10;;;;;;;22.15;11.27;;;18.60;99.90;;;;;;5030985;28;20438;-70
2022/05/06 08:36:37;;;;;;;17.70;9.43;;;18.90;99.90;;;;;;5022223;28;20014;-67
2022/05/06 08:39:04;;;;;;;20.45;10.63;;;18.90;99.90;;;;;;5011192;28;20475;-70
2022/05/06 08:41:31;;;;;;;18.15;9.57;;;19.20;99.90;;;;;;5010965;28;20033;-70
2022/05/06 08:50:50;;;;;;;19.50;10.57;;;19.30;99.90;;;;;;5010554;28;20064;-70
2022/05/06 08:52:33;;;;;;;19.13;10.20;;;19.70;99.90;;;;;;5011606;28;20471;-70
2022/05/06 08:55:04;;;;;;;17.73;11.88;;;19.90;99.90;;;;;;5011642;28;20595;-69
2022/05/06 08:57:31;;;;;;;24.75;12.95;;;20.20;99.90;;;;;;5010976;28;20476;-70
2022/05/06 08:59:57;;;;;;;26.13;11.98;;;20.20;99.90;;;;;;5011726;28;20435;-70
2022/05/06 09:02:22;;;;;;;20.45;11.27;;;20.40;99.90;;;;;;5011724;28;20045;-69
2022/05/06 09:04:48;;;;;;;21.70;12.82;;;20.30;99.90;;;;;;5012208;28;20022;-67
2022/05/06 09:07:20;;;;;;;21.27;11.30;;;20.50;99.90;;;;;;5011060;28;20037;-70
2022/05/06 09:10:07;;;;;;;21.57;11.77;;;20.80;99.40;;;;;;5010356;28;20030;-70
2022/05/06 09:12:42;;;;;;;20.40;11.90;;;20.70;98.60;;;;;;5010357;28;20033;-69
2022/05/06 09:17:55;;;;;;;20.77;12.23;;;20.90;99.90;;;;;;5011850;28;20033;-70
2022/05/06 09:20:21;;;;;;;19.55;10.50;;;21.00;99.90;;;;;;5010426;28;20030;-71
2022/05/06 09:22:50;;;;;;;21.75;11.73;;;21.20;99.00;;;;;;5010823;28;20037;-70
2022/05/06 09:25:52;;;;;;;23.02;11.68;;;21.30;97.70;;;;;;5011094;28;20021;-71
2022/05/06 09:28:27;;;;;;;18.35;12.05;;;21.30;94.60;;;;;;5009791;28;20061;-69
2022/05/06 09:31:04;;;;;;;20.25;12.38;;;21.20;95.70;;;;;;5012447;28;20060;-70
2022/05/06 09:33:35;;;;;;;20.85;11.85;;;21.30;96.10;;;;;;5010201;28;20134;-69
2022/05/06 09:36:24;;;;;;;21.45;11.95;;;21.60;97.10;;;;;;5011047;28;20455;-64
2022/05/06 09:39:08;;;;;;;16.35;10.18;;;21.80;95.10;;;;;;5011250;28;20026;-65
2022/05/06 09:41:37;;;;;;;18.13;8.45;;;21.70;94.70;;;;;;5009145;28;20033;-67
2022/05/06 09:44:04;;;;;;;11.63;7.38;;;21.40;96.40;;;;;;5007856;28;20100;-70
2022/05/06 09:46:31;;;;;;;15.25;7.70;;;21.50;92.00;;;;;;5012482;28;20137;-67
2022/05/06 09:48:58;;;;;;;13.18;7.82;;;21.80;93.30;;;;;;5013933;28;20064;-71
2022/05/06 09:51:28;;;;;;;11.60;7.22;;;22.00;93.50;;;;;;5014020;28;20128;-67
2022/05/06 09:53:56;;;;;;;14.30;7.32;;;22.00;92.30;;;;;;5013998;28;20077;-69
2022/05/06 09:56:24;;;;;;;11.75;6.78;;;22.00;90.60;;;;;;5010236;28;20096;-71
2022/05/06 09:58:54;;;;;;;12.18;7.75;;;22.30;92.20;;;;;;5013744;28;20472;-69
2022/05/06 10:01:21;;;;;;;13.95;7.28;;;22.50;90.70;;;;;;5014322;28;20045;-69
2022/05/06 10:03:47;;;;;;;13.45;7.40;;;22.70;90.50;;;;;;5013756;28;20141;-65
2022/05/06 10:06:14;;;;;;;12.55;6.95;;;22.60;88.80;;;;;;5014118;28;20096;-64
2022/05/06 10:08:51;;;;;;;10.32;5.85;;;22.80;88.60;;;;;;5014071;28;20033;-71
2022/05/06 10:11:24;;;;;;;11.95;5.97;;;22.50;88.70;;;;;;5014034;28;20037;-69
2022/05/06 10:13:52;;;;;;;13.20;7.90;;;22.40;90.70;;;;;;5013820;28;20487;-71
2022/05/06 10:16:17;;;;;;;9.90;6.40;;;22.40;88.20;;;;;;5014217;28;20504;-70
2022/05/06 10:18:44;;;;;;;10.13;5.45;;;22.20;88.50;;;;;;5013707;28;20025;-69
2022/05/06 10:21:12;;;;;;;10.32;6.10;;;22.40;87.70;;;;;;5013972;28;20492;-72
2022/05/06 10:23:48;;;;;;;8.85;5.57;;;22.50;86.50;;;;;;5012662;28;20022;-71
2022/05/06 10:26:42;;;;;;;10.07;5.80;;;22.50;86.70;;;;;;5014043;28;20106;-71
2022/05/06 10:35:02;;;;;;;9.75;5.55;;;22.50;82.80;;;;;;5012661;28;20038;-71
2022/05/06 10:37:44;;;;;;;10.73;6.05;;;22.50;83.60;;;;;;5013141;28;20436;-71
2022/05/06 10:40:25;;;;;;;9.13;5.70;;;22.60;88.70;;;;;;5013482;28;20033;-70
2022/05/06 10:42:51;;;;;;;7.82;5.10;;;22.50;88.20;;;;;;4995077;28;20062;-70
2022/05/06 10:45:32;;;;;;;11.10;6.35;;;22.80;87.40;;;;;;5022265;28;20380;-70
2022/05/06 10:47:59;;;;;;;9.23;5.45;;;22.70;86.70;;;;;;5014932;28;20037;-67
2022/05/06 10:50:36;;;;;;;9.68;5.57;;;22.80;85.40;;;;;;5017202;28;20032;-69
2022/05/06 10:53:05;;;;;;;16.15;6.53;;;22.80;87.70;;;;;;5018230;28;20053;-70
2022/05/06 10:55:31;;;;;;;11.40;6.03;;;23.00;87.80;;;;;;5014142;28;20026;-66
2022/05/06 10:58:03;;;;;;;10.80;6.63;;;22.80;86.00;;;;;;4994043;28;20045;-69
2022/05/06 11:00:32;;;;;;;10.68;5.72;;;22.90;82.20;;;;;;5016373;28;20392;-70
2022/05/06 11:02:59;;;;;;;10.75;5.30;;;22.90;80.80;;;;;;5012830;28;20484;-71
2022/05/06 11:05:26;;;;;;;9.55;6.07;;;22.60;79.60;;;;;;5006882;28;20026;-70
2022/05/06 11:07:58;;;;;;;10.70;6.28;;;22.60;81.40;;;;;;4996297;28;20026;-71
2022/05/06 11:10:27;;;;;;;14.68;6.82;;;22.80;84.40;;;;;;4997839;28;20022;-71
2022/05/06 11:12:56;;;;;;;10.10;5.97;;;22.80;83.10;;;;;;4992440;28;20041;-70
2022/05/06 11:15:25;;;;;;;11.15;6.38;;;23.10;85.10;;;;;;4992032;28;20044;-70
2022/05/06 11:17:56;;;;;;;20.13;12.45;;;23.20;79.90;;;;;;4992984;28;20034;-71
2022/05/06 11:20:31;;;;;;;17.73;11.80;;;23.00;80.80;;;;;;4998015;28;20030;-71
2022/05/06 11:23:11;;;;;;;15.38;9.18;;;22.80;79.80;;;;;;5031917;28;20033;-69
2022/05/06 11:25:45;;;;;;;18.52;10.57;;;22.70;80.00;;;;;;5012810;28;20459;-69
2022/05/06 11:28:13;;;;;;;19.52;9.02;;;22.10;81.00;;;;;;5012341;28;20025;-72
2022/05/06 11:30:46;;;;;;;14.48;8.40;;;22.40;81.30;;;;;;5029360;28;20034;-69
2022/05/06 11:33:24;;;;;;;15.30;8.30;;;22.00;81.70;;;;;;5032719;28;20049;-70
2022/05/06 11:36:03;;;;;;;31.95;9.30;;;21.90;81.30;;;;;;5025388;28;20045;-71
2022/05/06 11:38:38;;;;;;;13.85;7.60;;;21.70;81.10;;;;;;4992610;28;20473;-70
2022/05/06 11:41:16;;;;;;;12.50;7.65;;;21.90;82.30;;;;;;5014312;28;20093;-68
2022/05/06 11:43:43;;;;;;;11.00;7.53;;;22.00;83.70;;;;;;5016040;28;20104;-72
2022/05/06 11:49:07;;;;;;;13.20;8.23;;;22.40;81.00;;;;;;5012549;28;20373;-72
2022/05/06 11:51:46;;;;;;;12.88;7.50;;;22.10;82.60;;;;;;5009297;28;20019;-70
2022/05/06 11:54:15;;;;;;;11.77;7.47;;;22.60;87.10;;;;;;4992790;28;20034;-71
2022/05/06 11:56:42;;;;;;;14.52;8.25;;;22.40;81.00;;;;;;4991278;28;20029;-71
2022/05/06 11:59:10;;;;;;;15.82;7.85;;;22.50;85.20;;;;;;4999551;28;20067;-70
2022/05/06 12:01:38;;;;;;;14.35;8.38;;;22.70;83.70;;;;;;4993933;28;20469;-69
2022/05/06 12:04:09;;;;;;;14.40;8.18;;;22.60;79.20;;;;;;4993019;28;20394;-71
2022/05/06 12:06:38;;;;;;;12.40;7.70;;;22.60;81.50;;;;;;4993973;28;20034;-71
2022/05/06 12:09:14;;;;;;;11.32;6.82;;;22.60;79.90;;;;;;5031431;28;20021;-70
2022/05/06 12:11:41;;;;;;;13.52;7.40;;;22.80;78.80;;;;;;5032067;28;20033;-69
2022/05/06 12:14:09;;;;;;;15.85;8.30;;;23.10;79.50;;;;;;5013903;28;20377;-71
2022/05/06 12:16:35;;;;;;;27.77;7.32;;;23.30;79.80;;;;;;5012069;28;20030;-71
2022/05/06 12:19:01;;;;;;;13.98;7.80;;;23.40;78.20;;;;;;5012158;28;20026;-71
2022/05/06 12:21:28;;;;;;;13.45;7.82;;;23.40;77.80;;;;;;5012068;28;20038;-72
2022/05/06 12:23:59;;;;;;;16.58;7.97;;;23.40;79.40;;;;;;5011682;28;20022;-67
2022/05/06 12:26:36;;;;;;;11.55;6.38;;;23.50;83.40;;;;;;5011857;28;20033;-71
2022/05/06 12:29:16;;;;;;;11.52;6.30;;;23.50;77.10;;;;;;5011386;28;20069;-68
2022/05/06 12:31:42;;;;;;;9.23;6.03;;;23.70;79.40;;;;;;4998950;28;20034;-64
2022/05/06 12:34:08;;;;;;;11.65;5.95;;;23.90;80.90;;;;;;4999089;28;20431;-72
2022/05/06 12:36:36;;;;;;;9.05;5.88;;;23.80;75.40;;;;;;5012081;28;20032;-67
2022/05/06 12:39:19;;;;;;;8.88;5.10;;;23.80;76.30;;;;;;5012026;28;20100;-71
2022/05/06 12:41:45;;;;;;;11.77;5.15;;;23.30;74.30;;;;;;5011746;28;20034;-71
2022/05/06 12:44:31;;;;;;;9.98;5.32;;;23.20;75.20;;;;;;5011546;28;20025;-71
2022/05/06 12:47:13;;;;;;;9.00;5.72;;;23.40;75.00;;;;;;5011600;28;20713;-73
2022/05/06 12:49:39;;;;;;;10.52;5.88;;;23.50;78.20;;;;;;5010302;28;20044;-71
2022/05/06 12:52:10;;;;;;;11.05;6.00;;;23.70;79.00;;;;;;5011907;28;20030;-72
2022/05/06 12:54:37;;;;;;;12.85;6.03;;;23.70;80.20;;;;;;5011575;28;20026;-68
2022/05/06 12:57:03;;;;;;;10.10;4.72;;;23.80;77.90;;;;;;5011765;28;20018;-72
2022/05/06 12:59:30;;;;;;;13.13;7.00;;;23.70;76.40;;;;;;5011460;28;20040;-73
2022/05/06 13:01:56;;;;;;;11.38;6.43;;;22.90;76.50;;;;;;5011802;28;20077;-72
2022/05/06 13:04:22;;;;;;;10.25;6.93;;;23.20;78.70;;;;;;5011881;28;20030;-73
2022/05/06 13:06:48;;;;;;;12.57;6.45;;;23.00;77.80;;;;;;5016945;28;20436;-70
2022/05/06 13:09:14;;;;;;;12.43;6.53;;;23.20;78.50;;;;;;5031020;28;20037;-71
2022/05/06 13:11:40;;;;;;;11.25;6.10;;;23.20;77.80;;;;;;5030057;28;20086;-71
2022/05/06 13:14:07;;;;;;;10.13;6.45;;;23.20;78.90;;;;;;5016742;28;20061;-69
2022/05/06 13:16:35;;;;;;;12.93;6.82;;;23.20;76.30;;;;;;5015535;28;20089;-72
2022/05/06 13:19:02;;;;;;;10.55;6.25;;;23.40;77.80;;;;;;5013722;28;20040;-68
2022/05/06 13:21:28;;;;;;;9.57;5.78;;;23.40;78.80;;;;;;4994347;28;20030;-73
2022/05/06 13:23:54;;;;;;;11.02;5.90;;;23.60;80.20;;;;;;4995465;28;20514;-72
2022/05/06 13:26:19;;;;;;;11.07;6.50;;;23.50;76.90;;;;;;5014125;28;20022;-68
2022/05/06 13:28:45;;;;;;;10.40;6.45;;;23.40;78.90;;;;;;5015138;28;20029;-68
2022/05/06 13:31:13;;;;;;;9.57;5.70;;;23.20;78.80;;;;;;5015201;28;20373;-72
2022/05/06 13:33:39;;;;;;;11.38;5.82;;;23.40;80.10;;;;;;5015480;28;20040;-71
2022/05/06 13:36:05;;;;;;;11.25;6.13;;;23.60;77.80;;;;;;5015230;28;20026;-69